Main page
METAR-TAF:

METAR-TAF

Airports :

Amman, Jordan

Amman Civil Airport

latitude: 31-59N, longitude: 035-59E, elevation: 767 m

Current weather observation

The report was made 1 hour and 21 minutes ago, at 06:00 UTC
Wind 5 kt from the East
Temperature 21°C
Humidity 73%
Pressure 1017 hPa
Visibility: 4000 m
haze

METAR: OJAM 260600Z 09005KT 4000 HZ NSC 21/16 Q1017 NOSIG

Time: 10:21 (07:21 UTC)

Forecast

The report was made 2 hours and 31 minutes ago, at 04:50 UTC
Forecast valid from 26 at 06 UTC to 27 at 12 UTC
Wind 8 kt from the Northwest
Visibility: 6000 m
Temporary
from 26 at 12 UTC to 26 at 16 UTC
Visibility: 4000 m
Scattered clouds at a height of 3000 ft
haze

TAF: OJAM 260450Z 2606/2712 31008KT 6000 NSC TEMPO 2612/2616 4000 HZ SCT030

Weather observations and forecasts of more than 4000 airports (METAR and TAF reports).

The available stations are represented by yellow and red dots on the map.

Hover mouse over dot to see the name of the station.

Then click to see weather observations and forecasts.

To change the map : click on the green buttons with a black cross to zoom in, on the green button with a dash to zoom out, or on the green arrows for adjacent maps.


METAR-TAF: